Time;durP1;ratioP1;P1;durP2;ratioP2;P2;SDS_P1;SDS_P2;PMS_P1;PMS_P2;Temp;Humidity;BMP_temperature;BMP_pressure;BME280_temperature;BME280_humidity;BME280_pressure;Samples;Min_cycle;Max_cycle;Signal;HPM_P1;HPM_P2
2022/08/25 00:00:40;;;;;;;13.85;5.53;;;;;;;24.13;79.38;99307.72;5050524;28;20056;-48
2022/08/25 00:03:06;;;;;;;;;;;;;;;23.96;79.17;99299.41;5050859;28;20064;-47
2022/08/25 00:05:32;;;;;;;12.55;5.80;;;;;;;24.25;79.43;99312.63;5050000;28;20357;-45
2022/08/25 00:07:58;;;;;;;16.88;5.70;;;;;;;24.16;78.47;99303.59;5050072;28;20035;-45
2022/08/25 00:10:23;;;;;;;11.60;5.90;;;;;;;24.71;75.57;99316.28;5049769;28;20098;-47
2022/08/25 00:12:49;;;;;;;12.73;5.10;;;;;;;24.45;76.54;99324.22;5050487;28;20135;-46
2022/08/25 00:15:14;;;;;;;13.30;5.80;;;;;;;24.18;77.56;99313.06;5050241;28;20397;-43
2022/08/25 00:17:40;;;;;;;15.45;5.90;;;;;;;24.18;78.31;99326.66;5050388;28;20025;-46
2022/08/25 00:20:08;;;;;;;13.73;5.20;;;;;;;24.12;79.05;99322.44;5049963;28;20496;-45
2022/08/25 00:22:34;;;;;;;13.55;5.50;;;;;;;24.14;78.28;99320.22;5050467;28;20098;-46
2022/08/25 00:24:59;;;;;;;15.07;5.55;;;;;;;24.81;73.49;99318.78;5050871;28;20469;-47
2022/08/25 00:27:25;;;;;;;17.48;5.45;;;;;;;24.26;76.84;99313.47;5054014;28;20017;-45
2022/08/25 00:29:50;;;;;;;17.10;5.47;;;;;;;24.27;76.52;99309.63;5054116;28;20021;-43
2022/08/25 00:32:17;;;;;;;11.32;5.07;;;;;;;24.23;77.12;99316.78;5054076;28;20463;-44
2022/08/25 00:34:42;;;;;;;13.65;7.35;;;;;;;24.20;77.59;99312.78;5054295;28;20580;-37
2022/08/25 00:37:08;;;;;;;13.20;6.70;;;;;;;24.09;77.58;99303.22;5054039;28;20100;-37
2022/08/25 00:39:35;;;;;;;14.27;6.03;;;;;;;24.47;76.05;99294.78;5054110;28;20099;-37
2022/08/25 00:42:03;;;;;;;14.10;5.30;;;;;;;24.20;76.67;99301.91;5053716;28;20075;-37
2022/08/25 00:44:30;;;;;;;12.98;5.22;;;;;;;24.12;77.40;99305.31;5053733;28;20020;-37
2022/08/25 00:46:59;;;;;;;12.80;5.10;;;;;;;24.12;77.33;99305.31;5053746;28;20040;-37
2022/08/25 00:49:39;;;;;;;11.32;5.20;;;;;;;24.20;77.03;99299.19;5053496;28;20119;-37
2022/08/25 00:52:24;;;;;;;11.20;5.03;;;;;;;24.16;77.33;99288.09;5053358;28;20110;-37
2022/08/25 00:55:38;;;;;;;15.18;5.18;;;;;;;24.12;77.38;99287.13;5053730;28;20045;-38
2022/08/25 00:58:18;;;;;;;13.68;5.10;;;;;;;24.03;77.16;99280.78;5033245;28;20036;-37
2022/08/25 01:00:48;;;;;;;11.20;5.05;;;;;;;23.84;78.02;99269.22;5033531;28;20047;-37
2022/08/25 01:03:14;;;;;;;16.45;5.18;;;;;;;23.88;77.04;99264.81;5033398;28;20061;-37
2022/08/25 01:05:41;;;;;;;13.23;5.43;;;;;;;23.88;77.61;99264.81;5033596;28;20028;-37
2022/08/25 01:08:08;;;;;;;15.52;4.80;;;;;;;24.02;75.54;99268.28;5033423;28;20030;-37
2022/08/25 01:10:40;;;;;;;13.75;5.00;;;;;;;23.85;76.95;99266.19;5033197;28;20021;-37
2022/08/25 01:13:14;;;;;;;10.75;4.78;;;;;;;23.92;76.73;99263.88;5033536;28;20036;-37
2022/08/25 01:15:40;;;;;;;11.63;5.35;;;;;;;23.96;76.66;99253.22;5040695;28;20073;-37
2022/08/25 01:18:06;;;;;;;12.48;4.63;;;;;;;23.94;76.26;99260.88;5053519;28;20060;-37
2022/08/25 01:20:33;;;;;;;17.40;5.13;;;;;;;23.97;75.60;99257.53;5053112;28;20091;-37
2022/08/25 01:22:59;;;;;;;14.38;5.38;;;;;;;24.07;75.78;99259.25;5052989;28;20032;-37
2022/08/25 01:25:49;;;;;;;15.73;5.13;;;;;;;24.48;72.93;99266.47;5052734;28;20029;-37
2022/08/25 01:28:15;;;;;;;13.32;5.47;;;;;;;24.05;75.60;99264.19;5052770;28;20033;-37
2022/08/25 01:30:41;;;;;;;13.27;5.03;;;;;;;24.05;75.75;99258.75;5053027;28;20021;-37
2022/08/25 01:33:09;;;;;;;13.15;5.05;;;;;;;24.10;75.78;99258.63;5053062;28;20032;-37
2022/08/25 01:35:35;;;;;;;16.47;5.70;;;;;;;24.31;74.45;99256.25;5052728;28;20025;-37
2022/08/25 01:38:02;;;;;;;20.35;5.65;;;;;;;24.13;75.00;99256.09;5052911;28;20013;-37
2022/08/25 01:40:27;;;;;;;12.60;4.90;;;;;;;23.89;76.26;99269.13;5052951;28;20023;-37
2022/08/25 01:43:19;;;;;;;13.85;5.10;;;;;;;23.93;76.06;99262.78;5052659;28;20017;-37
2022/08/25 01:45:47;;;;;;;15.75;5.38;;;;;;;24.05;76.19;99262.25;5052394;28;20104;-37
2022/08/25 01:48:14;;;;;;;13.55;5.28;;;;;;;24.23;74.94;99267.84;5052854;28;20028;-37
2022/08/25 01:50:40;;;;;;;12.65;5.10;;;;;;;24.18;74.84;99264.16;5052494;28;20120;-37
2022/08/25 01:53:17;;;;;;;13.38;5.10;;;;;;;24.07;75.89;99254.59;5052835;28;20040;-37
2022/08/25 01:55:54;;;;;;;14.02;4.80;;;;;;;24.06;76.11;99263.84;5052132;28;20086;-37
2022/08/25 01:58:28;;;;;;;12.35;4.80;;;;;;;24.02;76.80;99267.50;5052755;28;20048;-38
2022/08/25 02:00:56;;;;;;;11.43;4.82;;;;;;;24.10;76.26;99264.06;5052195;28;20024;-38
2022/08/25 02:03:23;;;;;;;15.55;4.80;;;;;;;23.97;76.20;99258.34;5052473;28;20021;-37
2022/08/25 02:05:49;;;;;;;12.38;4.60;;;;;;;23.99;76.45;99252.63;5052622;28;20049;-37
2022/08/25 02:08:16;;;;;;;10.40;3.90;;;;;;;23.83;75.45;99237.72;5051982;28;20043;-37
2022/08/25 02:10:42;;;;;;;10.18;4.45;;;;;;;23.75;76.29;99237.31;5052766;28;20029;-37
2022/08/25 02:13:07;;;;;;;12.77;4.35;;;;;;;23.39;78.86;99239.91;5052157;28;20039;-37
2022/08/25 02:15:34;;;;;;;9.45;4.03;;;;;;;23.71;77.42;99227.34;5052177;28;20049;-37
2022/08/25 02:17:59;;;;;;;6.63;3.70;;;;;;;23.89;75.71;99231.88;5051786;28;20036;-37
2022/08/25 02:20:25;;;;;;;7.45;4.50;;;;;;;24.36;73.07;99220.78;5052085;28;20021;-37
2022/08/25 02:22:52;;;;;;;11.05;3.90;;;;;;;23.81;75.04;99229.88;5051897;28;20193;-37
2022/08/25 02:25:19;;;;;;;7.07;3.95;;;;;;;23.53;76.44;99224.44;5052341;28;20231;-37
2022/08/25 02:27:45;;;;;;;7.35;4.10;;;;;;;23.67;76.24;99213.56;5051746;28;20029;-37
2022/08/25 02:30:13;;;;;;;10.52;4.30;;;;;;;23.73;75.56;99223.22;5051982;28;20030;-37
2022/08/25 02:32:39;;;;;;;11.35;3.70;;;;;;;23.87;75.04;99222.44;5051708;28;20032;-37
2022/08/25 02:35:06;;;;;;;11.02;4.10;;;;;;;24.01;73.95;99220.50;5051715;28;20048;-37
2022/08/25 02:37:31;;;;;;;9.60;3.65;;;;;;;23.84;74.18;99221.13;5051403;28;20021;-37
2022/08/25 02:39:58;;;;;;;11.15;4.30;;;;;;;23.78;74.07;99219.59;5051650;28;20111;-37
2022/08/25 02:42:23;;;;;;;11.95;4.00;;;;;;;24.24;71.64;99220.53;5051867;28;20035;-37
2022/08/25 02:44:49;;;;;;;10.65;3.85;;;;;;;23.97;73.21;99222.19;5051975;28;20020;-37
2022/08/25 02:47:15;;;;;;;8.35;3.55;;;;;;;23.76;73.67;99197.34;5051159;28;20031;-38
2022/08/25 02:49:40;;;;;;;10.00;3.72;;;;;;;23.96;72.72;99205.09;5049881;28;20060;-37
2022/08/25 02:52:06;;;;;;;8.45;3.33;;;;;;;23.88;72.47;99196.88;5051783;28;20068;-37
2022/08/25 02:54:31;;;;;;;10.43;3.88;;;;;;;23.94;72.50;99195.66;5051438;28;20381;-37
2022/08/25 02:56:56;;;;;;;8.27;3.35;;;;;;;23.67;72.87;99183.69;5051196;28;20040;-37
2022/08/25 02:59:22;;;;;;;10.60;4.00;;;;;;;23.73;71.94;99190.63;5051301;28;20099;-37
2022/08/25 03:01:47;;;;;;;11.05;3.47;;;;;;;23.94;71.38;99182.06;5051261;28;20086;-36
2022/08/25 03:04:13;;;;;;;9.20;3.65;;;;;;;24.13;70.48;99193.59;5050900;28;20025;-37
2022/08/25 03:06:39;;;;;;;9.65;3.50;;;;;;;24.04;71.13;99189.19;5051397;28;20596;-37
2022/08/25 03:09:05;;;;;;;8.43;3.53;;;;;;;23.88;71.90;99181.38;5051159;28;20108;-36
2022/08/25 03:11:31;;;;;;;7.72;3.30;;;;;;;23.82;72.41;99174.47;5051006;28;20024;-37
2022/08/25 03:13:56;;;;;;;8.32;3.67;;;;;;;23.85;72.39;99181.97;5051460;28;20440;-37
2022/08/25 03:16:22;;;;;;;11.05;3.70;;;;;;;23.98;71.41;99175.72;5051016;28;20041;-37
2022/08/25 03:18:48;;;;;;;8.68;4.20;;;;;;;23.91;72.05;99169.09;5050771;28;20028;-37
2022/08/25 03:21:15;;;;;;;56.05;37.63;;;;;;;23.95;71.55;99184.47;5050652;28;20025;-37
2022/08/25 03:23:41;;;;;;;53.47;37.83;;;;;;;24.26;70.13;99180.28;5051340;28;20021;-37
2022/08/25 03:28:54;;;;;;;12.52;3.80;;;;;;;23.73;71.94;99185.19;5051232;28;20036;-37
2022/08/25 03:31:20;;;;;;;8.82;3.13;;;;;;;23.80;71.93;99188.34;5050930;28;20040;-38
2022/08/25 03:33:45;;;;;;;9.88;2.90;;;;;;;23.83;71.64;99196.97;5050805;28;20452;-37
2022/08/25 03:36:11;;;;;;;7.80;2.83;;;;;;;24.34;69.06;99196.63;5051535;28;20033;-36
2022/08/25 03:38:37;;;;;;;8.65;3.40;;;;;;;23.98;70.91;99200.16;5050458;28;20469;-37
2022/08/25 03:41:14;;;;;;;6.00;3.20;;;;;;;23.80;72.25;99206.56;5051138;28;20021;-36
2022/08/25 03:43:39;;;;;;;7.82;3.05;;;;;;;23.79;72.24;99207.66;5050850;28;20032;-37
2022/08/25 03:46:05;;;;;;;7.43;3.17;;;;;;;23.92;71.56;99206.81;5050500;28;20025;-37
2022/08/25 03:48:30;;;;;;;8.35;3.35;;;;;;;23.91;72.19;99210.66;5050091;28;20051;-37
2022/08/25 03:50:56;;;;;;;7.68;2.97;;;;;;;23.83;71.89;99214.06;5049972;28;20025;-37
2022/08/25 03:53:21;;;;;;;11.45;8.18;;;;;;;24.32;69.37;99206.22;5049723;28;20029;-37
2022/08/25 03:55:47;;;;;;;7.53;4.28;;;;;;;23.98;71.84;99202.88;5055465;28;20034;-37
2022/08/25 03:58:13;;;;;;;9.23;3.80;;;;;;;23.92;72.46;99206.03;5070734;28;20024;-37
2022/08/25 04:00:38;;;;;;;6.47;3.35;;;;;;;23.80;72.74;99203.84;5072680;28;20047;-37
2022/08/25 04:03:04;;;;;;;9.48;3.17;;;;;;;23.90;72.53;99209.03;5075320;28;20460;-36
2022/08/25 04:05:30;;;;;;;9.00;3.05;;;;;;;23.84;72.91;99212.16;5074580;28;20036;-37
2022/08/25 04:07:55;;;;;;;8.70;3.30;;;;;;;23.87;73.68;99214.28;5074776;28;20024;-37
2022/08/25 04:10:20;;;;;;;9.43;2.83;;;;;;;23.85;73.37;99214.56;5074501;28;20462;-37
2022/08/25 04:12:48;;;;;;;8.18;3.30;;;;;;;23.98;72.52;99218.38;5074779;28;20031;-37
2022/08/25 04:15:14;;;;;;;6.85;2.85;;;;;;;23.92;72.39;99222.31;5070553;28;20068;-37
2022/08/25 04:17:39;;;;;;;6.13;2.97;;;;;;;23.85;71.94;99224.66;5054459;28;20055;-36
2022/08/25 04:20:08;;;;;;;5.57;2.63;;;;;;;24.09;71.80;99222.50;5053875;28;20469;-37
2022/08/25 04:22:33;;;;;;;4.80;2.75;;;;;;;24.24;70.64;99215.09;5053867;28;20109;-36
2022/08/25 04:24:59;;;;;;;7.78;2.67;;;;;;;24.20;70.25;99221.16;5053909;28;20147;-37
2022/08/25 04:27:24;;;;;;;9.07;2.90;;;;;;;24.22;70.45;99211.88;5053513;28;20404;-37
2022/08/25 04:29:50;;;;;;;7.55;2.35;;;;;;;24.10;70.83;99215.94;5053441;28;20021;-37
2022/08/25 04:32:15;;;;;;;7.38;2.65;;;;;;;24.30;69.87;99219.31;5054040;28;20464;-39
2022/08/25 04:34:42;;;;;;;5.65;2.50;;;;;;;24.39;69.95;99217.47;5052974;28;20078;-37
2022/08/25 04:37:08;;;;;;;5.75;2.75;;;;;;;24.61;69.26;99213.19;5052812;28;20041;-37
2022/08/25 04:39:33;;;;;;;7.65;2.83;;;;;;;24.81;69.10;99201.78;5053588;28;20039;-37
2022/08/25 04:41:59;;;;;;;10.05;2.70;;;;;;;25.09;67.89;99205.16;5052943;28;20473;-36
2022/08/25 04:44:25;;;;;;;7.55;3.20;;;;;;;25.13;66.96;99208.00;5048481;28;20021;-38
2022/08/25 04:46:51;;;;;;;29.13;22.83;;;;;;;25.23;66.43;99213.22;5053584;28;20029;-37
2022/08/25 04:49:16;;;;;;;9.45;4.18;;;;;;;25.52;64.75;99209.97;5054110;28;20029;-37
2022/08/25 04:51:42;;;;;;;6.15;2.70;;;;;;;25.81;64.41;99205.88;5053086;28;20032;-37
2022/08/25 04:54:20;;;;;;;10.93;2.70;;;;;;;26.17;62.39;99198.56;5052960;28;20035;-37
2022/08/25 04:56:47;;;;;;;8.63;2.65;;;;;;;26.74;60.66;99198.38;5065584;28;20024;-37
2022/08/25 04:59:15;;;;;;;6.68;2.80;;;;;;;26.41;61.06;99200.81;5072892;28;20474;-38
2022/08/25 05:01:42;;;;;;;8.65;2.90;;;;;;;26.48;61.22;99196.47;5073064;28;20424;-38
2022/08/25 05:04:09;;;;;;;6.15;2.70;;;;;;;26.45;60.92;99194.38;5072836;28;20082;-36
2022/08/25 05:06:34;;;;;;;5.07;2.70;;;;;;;26.63;60.70;99187.00;5072787;28;20035;-37
2022/08/25 05:09:03;;;;;;;7.13;2.80;;;;;;;26.97;58.66;99182.56;5060343;28;20020;-38
2022/08/25 05:11:28;;;;;;;9.52;3.08;;;;;;;26.82;59.34;99183.13;5050813;28;20041;-37
2022/08/25 05:13:55;;;;;;;9.75;2.92;;;;;;;27.08;58.11;99192.00;5052347;28;20106;-44
2022/08/25 05:16:23;;;;;;;7.68;3.00;;;;;;;27.27;57.56;99194.38;5052162;28;20053;-47
2022/08/25 05:18:49;;;;;;;8.75;3.28;;;;;;;27.48;56.51;99188.19;5052214;28;20052;-44
2022/08/25 05:21:17;;;;;;;7.55;3.55;;;;;;;27.76;55.12;99190.41;5052343;28;20056;-46
2022/08/25 05:23:45;;;;;;;7.22;3.10;;;;;;;27.35;56.34;99189.22;5052352;28;20025;-45
2022/08/25 05:26:21;;;;;;;8.77;3.20;;;;;;;27.46;57.36;99190.44;5052394;28;20116;-45
2022/08/25 05:28:49;;;;;;;11.35;3.40;;;;;;;27.72;56.25;99186.75;5049136;28;20036;-43
2022/08/25 05:31:14;;;;;;;7.00;3.30;;;;;;;28.05;55.71;99195.09;5041825;28;20047;-43
2022/08/25 05:33:41;;;;;;;10.55;3.50;;;;;;;28.11;54.91;99192.94;5031250;28;20033;-45
2022/08/25 05:36:08;;;;;;;9.95;3.70;;;;;;;28.56;54.32;99189.50;5030773;28;20452;-43
2022/08/25 05:38:34;;;;;;;7.57;3.40;;;;;;;28.21;54.74;99190.59;5031183;28;20037;-45
2022/08/25 05:41:06;;;;;;;12.13;3.95;;;;;;;28.34;54.22;99193.41;5031085;28;20018;-44
2022/08/25 05:43:32;;;;;;;10.98;4.00;;;;;;;28.34;54.29;99179.72;5030832;28;20029;-44
2022/08/25 05:45:58;;;;;;;11.43;4.00;;;;;;;28.84;52.67;99189.69;5030872;28;20111;-43
2022/08/25 05:48:26;;;;;;;11.02;4.18;;;;;;;29.48;51.31;99193.00;5030624;28;20143;-44
2022/08/25 05:50:57;;;;;;;9.35;4.00;;;;;;;29.15;51.93;99191.97;5031087;28;20592;-43
2022/08/25 05:53:24;;;;;;;11.35;4.30;;;;;;;28.88;52.09;99182.41;5031767;28;20099;-44
2022/08/25 05:55:51;;;;;;;10.43;4.60;;;;;;;28.85;52.18;99180.38;5036578;28;20016;-43
2022/08/25 05:58:17;;;;;;;10.05;4.50;;;;;;;29.13;51.47;99175.06;5051299;28;20029;-44
2022/08/25 06:00:43;;;;;;;13.02;4.68;;;;;;;29.54;50.57;99173.22;5050536;28;20025;-44
2022/08/25 06:03:09;;;;;;;11.70;4.72;;;;;;;29.53;50.44;99171.63;5050343;28;20453;-45
2022/08/25 06:05:34;;;;;;;10.10;5.03;;;;;;;29.47;50.04;99172.19;5050633;28;20032;-44
2022/08/25 06:08:00;;;;;;;14.40;5.15;;;;;;;29.71;49.29;99177.66;5050546;28;20021;-43
2022/08/25 06:10:26;;;;;;;12.35;5.22;;;;;;;30.12;48.44;99173.03;5051061;28;20044;-44
2022/08/25 06:12:54;;;;;;;11.63;5.03;;;;;;;30.80;47.41;99176.84;5050550;28;20025;-43
2022/08/25 06:15:22;;;;;;;14.20;5.47;;;;;;;31.24;45.97;99171.28;5050983;28;20044;-44
2022/08/25 06:17:48;;;;;;;9.83;5.17;;;;;;;31.06;46.50;99173.59;5051111;28;20037;-44
2022/08/25 06:20:19;;;;;;;12.18;6.18;;;;;;;31.17;46.39;99168.38;5051004;28;20036;-44
2022/08/25 06:22:45;;;;;;;15.13;5.57;;;;;;;31.44;45.55;99171.38;5049362;28;20075;-44
2022/08/25 06:25:13;;;;;;;14.75;6.22;;;;;;;31.44;45.07;99179.59;5050239;28;20193;-46
2022/08/25 06:27:39;;;;;;;11.25;5.38;;;;;;;31.59;45.02;99172.50;5050017;28;20025;-45
2022/08/25 06:30:07;;;;;;;12.70;5.88;;;;;;;30.93;46.50;99169.34;5050152;28;20329;-44
2022/08/25 06:32:38;;;;;;;13.20;5.88;;;;;;;30.65;46.66;99164.66;5049974;28;20504;-45
2022/08/25 06:35:05;;;;;;;13.68;5.82;;;;;;;31.20;45.77;99164.91;5049270;28;20445;-43
2022/08/25 06:37:31;;;;;;;12.63;5.90;;;;;;;31.06;45.72;99162.63;5049206;28;20508;-48
2022/08/25 06:39:57;;;;;;;11.63;5.45;;;;;;;31.34;45.13;99167.22;5049780;28;20028;-44
2022/08/25 06:42:22;;;;;;;17.48;6.40;;;;;;;30.77;46.24;99163.81;5050261;28;20425;-46
2022/08/25 06:44:48;;;;;;;11.80;5.90;;;;;;;30.82;45.83;99168.25;5050575;28;20032;-45
2022/08/25 06:47:14;;;;;;;18.30;6.20;;;;;;;30.71;47.17;99163.28;5050358;28;20112;-45
2022/08/25 06:49:44;;;;;;;12.63;6.32;;;;;;;31.22;45.69;99159.06;5050460;28;20356;-46
2022/08/25 06:52:10;;;;;;;13.60;5.88;;;;;;;31.56;44.91;99161.06;5050770;28;20025;-46
2022/08/25 06:54:35;;;;;;;18.17;6.43;;;;;;;31.71;44.68;99155.88;5050168;28;20036;-43
2022/08/25 06:57:01;;;;;;;19.67;6.20;;;;;;;32.26;43.36;99153.91;5050220;28;20040;-42
2022/08/25 06:59:26;;;;;;;19.38;5.97;;;;;;;32.36;43.49;99158.03;5050795;28;20028;-43
2022/08/25 07:01:52;;;;;;;18.35;6.40;;;;;;;32.91;42.62;99155.09;5050349;28;20036;-43
2022/08/25 07:04:18;;;;;;;18.25;6.28;;;;;;;32.42;43.11;99153.81;5050521;28;20472;-44
2022/08/25 07:06:43;;;;;;;16.35;6.75;;;;;;;32.56;42.91;99158.81;5049817;28;20386;-44
2022/08/25 07:09:10;;;;;;;17.52;6.07;;;;;;;32.87;42.56;99148.75;5050083;28;20047;-44
2022/08/25 07:11:36;;;;;;;12.48;6.22;;;;;;;32.80;43.03;99151.38;5050470;28;20021;-44
2022/08/25 07:14:03;;;;;;;18.73;6.30;;;;;;;32.35;43.59;99153.69;5050415;28;20055;-44
2022/08/25 07:16:30;;;;;;;13.68;6.60;;;;;;;32.63;43.22;99141.63;5049714;28;20519;-45
2022/08/25 07:18:56;;;;;;;16.27;6.60;;;;;;;32.92;42.80;99140.19;5050825;28;20487;-43
2022/08/25 07:21:24;;;;;;;17.08;6.55;;;;;;;33.09;41.95;99138.84;5050534;28;20045;-46
2022/08/25 07:23:51;;;;;;;17.73;6.88;;;;;;;32.81;42.67;99131.72;5050405;28;20492;-44
2022/08/25 07:26:23;;;;;;;15.68;6.60;;;;;;;32.76;42.49;99143.03;5049752;28;20033;-45
2022/08/25 07:28:49;;;;;;;18.05;6.80;;;;;;;33.29;41.39;99136.84;5049531;28;20033;-45
2022/08/25 07:31:16;;;;;;;21.73;7.03;;;;;;;33.71;41.63;99144.16;5049316;28;20033;-44
2022/08/25 07:35:14;;;;;;;21.67;7.40;;;;;;;33.54;40.02;99139.94;5049591;28;20460;-45
2022/08/25 07:36:26;;;;;;;13.38;7.15;;;;;;;33.18;40.42;99146.91;5047305;28;20040;-44
2022/08/25 07:38:52;;;;;;;21.33;7.10;;;;;;;33.14;41.20;99140.53;5047519;28;20021;-46
2022/08/25 07:41:17;;;;;;;19.63;6.75;;;;;;;33.43;40.46;99142.53;5048615;28;20522;-46
2022/08/25 07:43:44;;;;;;;14.73;7.40;;;;;;;33.82;39.71;99141.53;5048588;28;20035;-44
2022/08/25 07:46:09;;;;;;;22.33;7.40;;;;;;;34.13;39.73;99148.59;5048683;28;20458;-46
2022/08/25 07:48:35;;;;;;;18.67;7.32;;;;;;;33.94;40.24;99144.03;5049108;28;20422;-46
2022/08/25 07:51:07;;;;;;;15.38;6.97;;;;;;;33.91;39.97;99149.50;5049271;28;20489;-45
2022/08/25 07:53:33;;;;;;;17.75;6.90;;;;;;;34.35;39.14;99146.94;5049275;28;20048;-44
2022/08/25 07:55:58;;;;;;;15.95;6.53;;;;;;;34.90;38.20;99145.47;5049225;28;20111;-43
2022/08/25 07:58:23;;;;;;;23.98;7.22;;;;;;;34.79;38.63;99140.66;5048982;28;20036;-45
2022/08/25 08:00:51;;;;;;;15.18;6.88;;;;;;;35.22;37.54;99143.00;5049456;28;20025;-43
2022/08/25 08:03:18;;;;;;;16.90;6.30;;;;;;;34.89;38.49;99149.44;5049570;28;20020;-47
2022/08/25 08:05:43;;;;;;;15.85;6.60;;;;;;;34.53;38.39;99146.31;5049296;28;20029;-43
2022/08/25 08:08:09;;;;;;;21.58;7.05;;;;;;;34.82;37.95;99155.69;5049264;28;20021;-44
2022/08/25 08:10:38;;;;;;;22.33;7.28;;;;;;;35.07;37.49;99153.13;5049085;28;20026;-44
2022/08/25 08:13:04;;;;;;;16.42;7.03;;;;;;;35.10;37.60;99146.06;5049376;28;20029;-45
2022/08/25 08:15:29;;;;;;;25.50;7.32;;;;;;;35.13;38.14;99156.31;5048980;28;20052;-46
2022/08/25 08:17:55;;;;;;;18.83;7.07;;;;;;;34.96;38.31;99143.97;5049176;28;20428;-46
2022/08/25 08:20:20;;;;;;;22.58;7.88;;;;;;;35.13;37.34;99150.78;5048840;28;20036;-44
2022/08/25 08:22:46;;;;;;;23.13;7.43;;;;;;;35.31;37.17;99146.22;5049249;28;20032;-43
2022/08/25 08:25:11;;;;;;;22.58;7.15;;;;;;;35.42;35.80;99152.63;5048910;28;20025;-44
2022/08/25 08:27:38;;;;;;;19.00;6.93;;;;;;;34.34;36.95;99150.84;5049077;28;20385;-43
2022/08/25 08:30:05;;;;;;;20.83;7.10;;;;;;;34.63;37.80;99157.47;5049128;28;20476;-47
2022/08/25 08:32:31;;;;;;;24.05;7.13;;;;;;;35.16;36.55;99148.06;5049534;28;20112;-47
2022/08/25 08:34:56;;;;;;;26.13;7.47;;;;;;;35.50;35.56;99153.44;5049441;28;20124;-45
2022/08/25 08:37:22;;;;;;;18.10;6.50;;;;;;;35.06;36.00;99140.50;5048940;28;20404;-45
2022/08/25 08:39:47;;;;;;;25.20;6.43;;;;;;;34.96;36.70;99149.50;5049010;28;20036;-45
2022/08/25 08:42:25;;;;;;;27.52;6.70;;;;;;;35.19;35.92;99146.53;5048122;28;20025;-44
2022/08/25 08:45:06;;;;;;;22.35;6.40;;;;;;;35.66;34.48;99139.31;5049102;28;20033;-42
2022/08/25 08:47:42;;;;;;;21.85;6.65;;;;;;;36.33;33.61;99134.50;5052099;28;20017;-43
2022/08/25 08:50:20;;;;;;;19.88;6.60;;;;;;;36.33;33.37;99132.50;5052613;28;20249;-43
2022/08/25 08:53:06;;;;;;;20.75;6.45;;;;;;;36.18;33.89;99134.44;5052637;28;20025;-44
2022/08/25 08:55:37;;;;;;;23.90;7.07;;;;;;;36.19;33.55;99138.00;5052729;28;20041;-44
2022/08/25 08:58:38;;;;;;;30.90;6.93;;;;;;;35.95;34.31;99142.25;5052707;28;20453;-45
2022/08/25 09:01:04;;;;;;;23.80;6.82;;;;;;;35.66;33.91;99142.06;5039118;28;20033;-43
2022/08/25 09:03:38;;;;;;;20.60;6.10;;;;;;;35.98;34.07;99139.47;5052344;28;20116;-44
2022/08/25 09:06:11;;;;;;;25.67;7.03;;;;;;;36.05;34.96;99140.72;5052518;28;20044;-46
2022/08/25 09:08:42;;;;;;;19.17;6.85;;;;;;;36.50;34.05;99141.22;5052681;28;20025;-44
2022/08/25 09:11:49;;;;;;;24.73;6.25;;;;;;;36.39;33.56;99144.00;5052787;28;20075;-44
2022/08/25 09:14:46;;;;;;;24.10;6.50;;;;;;;36.05;33.98;99137.94;5052561;28;20098;-47
2022/08/25 09:17:39;;;;;;;27.15;6.88;;;;;;;35.91;33.59;99135.88;5051896;28;20136;-45
2022/08/25 09:20:10;;;;;;;21.38;6.63;;;;;;;36.04;33.67;99136.34;5052718;28;20087;-46
2022/08/25 09:22:50;;;;;;;24.13;5.95;;;;;;;36.26;32.87;99126.94;5052297;28;20113;-44
2022/08/25 09:25:44;;;;;;;23.95;6.60;;;;;;;36.15;33.44;99131.63;5051905;28;20453;-47
2022/08/25 09:28:31;;;;;;;18.27;6.18;;;;;;;35.40;33.56;99130.09;5051964;28;20029;-48
2022/08/25 09:31:11;;;;;;;23.10;6.28;;;;;;;35.55;34.21;99127.41;5052405;28;20025;-45
2022/08/25 09:33:36;;;;;;;27.40;6.70;;;;;;;35.91;33.32;99117.31;5051764;28;20062;-48
2022/08/25 09:36:03;;;;;;;26.08;6.93;;;;;;;36.49;33.22;99118.28;5051942;28;20098;-46
2022/08/25 09:38:29;;;;;;;23.63;6.45;;;;;;;36.92;32.46;99112.78;5052466;28;20025;-46
2022/08/25 09:40:59;;;;;;;18.90;5.43;;;;;;;36.77;32.16;99106.44;5051980;28;20032;-46
2022/08/25 09:43:33;;;;;;;20.00;5.85;;;;;;;36.26;32.38;99112.31;5051943;28;20035;-47
2022/08/25 09:45:59;;;;;;;22.75;5.55;;;;;;;36.09;32.43;99099.97;5051621;28;20130;-43
2022/08/25 09:48:27;;;;;;;22.67;5.78;;;;;;;36.06;31.48;99104.31;5051894;28;20025;-43
2022/08/25 09:51:00;;;;;;;33.00;5.47;;;;;;;36.95;29.17;99092.56;5051896;28;20021;-43
2022/08/25 09:53:27;;;;;;;26.20;5.30;;;;;;;36.29;31.14;99100.44;5051991;28;20024;-43
2022/08/25 09:56:03;;;;;;;22.25;5.30;;;;;;;36.14;30.33;99081.00;5051493;28;20033;-45
2022/08/25 09:58:30;;;;;;;20.83;4.78;;;;;;;35.79;31.16;99081.69;5050390;28;20021;-47
2022/08/25 10:01:06;;;;;;;31.70;6.05;;;;;;;35.84;30.21;99078.53;5051669;28;20065;-43
2022/08/25 10:03:31;;;;;;;24.00;5.35;;;;;;;35.88;30.99;99067.50;5051684;28;20017;-45
2022/08/25 10:06:03;;;;;;;29.15;5.53;;;;;;;35.70;31.88;99068.22;5051278;28;20032;-46
2022/08/25 10:08:38;;;;;;;25.42;5.57;;;;;;;35.68;31.90;99076.13;5051215;28;20112;-46
2022/08/25 10:11:12;;;;;;;32.35;5.60;;;;;;;35.59;31.66;99068.16;5051290;28;20485;-44
2022/08/25 10:13:47;;;;;;;26.70;6.07;;;;;;;35.86;31.13;99067.09;5051024;28;20427;-44
2022/08/25 10:16:27;;;;;;;24.63;5.45;;;;;;;36.07;31.57;99072.69;5050839;28;20115;-45
2022/08/25 10:19:22;;;;;;;25.40;5.65;;;;;;;35.66;31.32;99067.38;5049630;28;20035;-44
2022/08/25 10:22:20;;;;;;;24.17;5.28;;;;;;;35.67;31.93;99057.91;5051339;28;20028;-43
2022/08/25 10:24:45;;;;;;;20.35;5.30;;;;;;;35.68;30.71;99061.47;5045696;28;20040;-45
2022/08/25 10:27:32;;;;;;;21.00;5.10;;;;;;;35.54;30.97;99051.13;5051121;28;20031;-44
2022/08/25 10:30:18;;;;;;;27.85;5.50;;;;;;;36.36;30.08;99053.38;5050883;28;20480;-43
2022/08/25 10:32:57;;;;;;;24.17;5.70;;;;;;;36.03;31.25;99057.25;5051136;28;20053;-44
2022/08/25 10:35:32;;;;;;;25.08;5.35;;;;;;;35.58;31.90;99047.19;5050695;28;20053;-43
2022/08/25 10:38:22;;;;;;;29.15;6.03;;;;;;;35.74;32.41;99049.66;5050347;28;20028;-43
2022/08/25 10:41:00;;;;;;;22.98;5.22;;;;;;;35.74;31.15;99040.56;5050489;28;20102;-46
2022/08/25 10:43:34;;;;;;;20.83;5.22;;;;;;;36.06;31.10;99043.41;5050784;28;20095;-43
2022/08/25 10:46:29;;;;;;;25.02;5.68;;;;;;;36.06;30.51;99037.88;5050777;28;20037;-45
2022/08/25 10:48:57;;;;;;;24.40;5.40;;;;;;;36.10;31.28;99041.44;5050632;28;20131;-46
2022/08/25 10:51:30;;;;;;;;;;;;;;;35.72;29.60;99032.66;5051112;28;20086;-45
2022/08/25 10:54:06;;;;;;;22.17;5.32;;;;;;;35.48;29.92;99033.34;5050532;28;19909;-46
2022/08/25 10:56:42;;;;;;;25.73;5.35;;;;;;;35.28;29.99;99028.13;5050257;28;20477;-44
2022/08/25 10:59:29;;;;;;;26.08;6.03;;;;;;;34.98;30.26;99022.78;5050653;28;20031;-44
2022/08/25 11:02:18;;;;;;;22.52;5.70;;;;;;;35.17;30.09;99032.75;5049950;28;20033;-45
2022/08/25 11:04:58;;;;;;;20.77;4.85;;;;;;;34.85;30.59;99019.53;5047494;28;20045;-44
2022/08/25 11:07:35;;;;;;;28.58;5.70;;;;;;;34.96;30.54;99028.69;5050504;28;20036;-44
2022/08/25 11:10:09;;;;;;;34.35;5.30;;;;;;;35.16;30.49;99009.84;5048000;28;20071;-37
2022/08/25 11:12:43;;;;;;;24.02;5.07;;;;;;;36.12;29.16;99019.69;5050514;28;20049;-37
2022/08/25 11:15:27;;;;;;;21.05;4.93;;;;;;;35.82;28.86;99017.28;5050088;28;20110;-37
2022/08/25 11:17:58;;;;;;;23.83;5.28;;;;;;;35.93;28.60;99020.84;5050926;28;20036;-37
2022/08/25 11:20:32;;;;;;;25.00;4.55;;;;;;;36.21;27.99;99013.78;5050692;28;20485;-38
2022/08/25 11:23:16;;;;;;;32.28;5.55;;;;;;;36.57;29.19;99025.66;5050093;28;20036;-37
2022/08/25 11:25:44;;;;;;;25.27;4.53;;;;;;;36.86;29.58;99017.38;5050244;28;20025;-37
2022/08/25 11:28:29;;;;;;;25.88;5.05;;;;;;;36.56;29.61;99024.09;5049978;28;20043;-37
2022/08/25 11:30:58;;;;;;;20.17;4.50;;;;;;;36.48;29.23;99007.88;5050233;28;20029;-37
2022/08/25 11:33:26;;;;;;;24.63;4.82;;;;;;;36.85;28.89;99004.69;5049679;28;20488;-37
2022/08/25 11:36:04;;;;;;;22.45;4.93;;;;;;;37.72;27.23;99008.78;5049842;28;20028;-36
2022/08/25 11:38:51;;;;;;;29.92;5.13;;;;;;;37.46;27.00;99003.75;5049119;28;20024;-37
2022/08/25 11:41:25;;;;;;;30.77;5.10;;;;;;;36.95;28.60;98998.31;5049916;28;20471;-37